Coxs Mills, WV (26342)

4:58 AM EST on January 18, 2018 (GMT -0500)
Brooklyn Point | | Change Station

Elev 732 ft 38.94 °N, 80.84 °W | Updated 12 seconds ago

Partly Cloudy
Partly Cloudy
10.1 °F
Feels Like 10 °F
N
0.0
Wind Variable Wind from SW

Today
High -- | Low -- °F
--% Chance of Precip.
Yesterday
High -- | Low -- °F
Precip. -- in
Pressure 30.31 in
Visibility 10.0 miles
Clouds Overcast 1200 ft
Windchill 10 °F
Dew Point 7 °F
Humidity 86%
Rainfall 0.00 in
Snow Depth Not available.
7:39 AM 5:28 PM
New Moon, 2% visible
METAR KW22 180935Z AUTO 21007KT 10SM OVC012 M13/M15 A3031 RMK AO2
Pressure 30.31 in
Visibility 10.0 miles
Clouds Overcast 1200 ft
Windchill 10 °F
Dew Point 7 °F
Humidity 86%
Rainfall 0.00 in
Snow Depth Not available.
7:39 AM 5:28 PM
New Moon, 2% visible
METAR KW22 180935Z AUTO 21007KT 10SM OVC012 M13/M15 A3031 RMK AO2

Get Severe Weather Alerts

Thanks for signing up!

Be on the lookout for a verification email in your inbox.

You'll start receiving the daily forecast at 6 AM.

×

10-Day Weather Forecast

Almanac

Astronomy

Jan. 18, 2018 Rise Set
Actual Time
Civil Twilight
Nautical Twilight
Astronomical Twilight
Moon
Length of Visible Light
Length of Day
Tomorrow will be .
, % of the Moon is Illuminated

Today's Extremes

State Highs State Lows

Community

WunderPhotos

Category 6

Welcome to Category 6. This is the collective home for Weather Underground's featured writeups by Dr. Jeff Masters (right), Bob Henson (left), Chris Burt, and other regular contributors.

Nearby

Air Quality

  Air Quality AQ Index Pollutant
Not available.

Snow Depth

Station Depth Elevation

Earthquake Activity

City Distance Mag. Time & Date
Minimum magnitude displayed is 2.5.

Coastal Water Temperatures

Place Temperature

Stations

Nearby Weather Stations

Station Location Temp. Windchill Dew Point Humidity Wind Precip. Elev Updated Type
                   

Watches & Warnings

There are currently no watches in effect.